METAR AND TAF INFORMATION
METAR FOR LDZA
ADDS - METARS form results

(1355 UTC 20 February 2019)
Data provider http://aviationweather.gov/metar/data/
 
METAR text: LDZA 201330Z 11004KT 030V160 CAVOK 15/01 Q1023 NOSIG
Conditions at: LDZA (ZAGREB/PLESO , HR) observed 1330 UTC 20 February 2019
Temperature: 15.0°C (59°F)
Dewpoint: 1.0°C (34°F) [RH = 39%]
Pressure (altimeter): 30.21 inches Hg (1023.0 mb)
Winds: from the ESE (110 degrees) at 5 MPH (4 knots; 2.1 m/s)
Visibility: 6 or more miles (10+ km)
Ceiling: ceiling and visibility are OK
Clouds: unknown
Weather: no significant weather observed at this time

METAR text: LDZA 201300Z 09004KT 020V170 CAVOK 14/01 Q1023 NOSIG
Conditions at: LDZA (ZAGREB/PLESO , HR) observed 1300 UTC 20 February 2019
Temperature: 14.0°C (57°F)
Dewpoint: 1.0°C (34°F) [RH = 41%]
Pressure (altimeter): 30.21 inches Hg (1023.0 mb)
Winds: from the E (90 degrees) at 5 MPH (4 knots; 2.1 m/s)
Visibility: 6 or more miles (10+ km)
Ceiling: ceiling and visibility are OK
Clouds: unknown
Weather: no significant weather observed at this time

Forecast for: LDZA (ZAGREB/PLESO , HR)
Text: TAF LDZA 201125Z 2012/2112 VRB02KT CAVOK TX15/2014Z TNM01/2106Z
Forecast period: 1200 UTC 20 February 2019 to 1200 UTC 21 February 2019
Forecast type: FROM: standard forecast or significant change
Winds: variable direction winds at 2 MPH (2 knots; 1.0 m/s)
Visibility: 6 or more miles 10+ km)
Ceiling: unknown
Clouds: missing
Weather: no significant weather forecast for this period
Text: PROB30 2105/2108 4000 MIFG BR
Forecast period: 0500 to 0800 UTC 21 February 2019
Forecast type: PROBABLE: 30 percent likelihood of the following during this time
Visibility: 2.49 miles (4.01 km)
Ceiling: unknown
Clouds: missing
Weather: MIFG BR  (shallow fog, mist)

 AIRPORT MAP

 RUNWAY INFORMATION

 AIRPORT FREQUENCIES
Type APP Name APP Frequency 120.7 MHZ
Type ATIS Name ATIS Frequency 124.375 MHZ
Type GND Name GND Frequency 121.85 MHZ
Type INFO Name INFO Frequency 124.85 MHZ
Type RDR Name RADAR Frequency 120.7 MHZ
Type TWR Name TWR Frequency 118.3 MHZ

 AIRPORT NEAR NAVIGATION AIDS
Type DME Name Iza Frequency 109500 KHZ
Type NDB Name Pisarovina Frequency 424 KHZ
Type NDB Name S.kKaljevec Frequency 350 KHZ
Type NDB Name Velika Gorica Frequency 325 KHZ
Type VOR-DME Name Zagreb Frequency 113700 KHZ
Type NDB Name Zagreb Frequency 367 KHZ



Powered by Virtual Airlines Manager [v2.6.2]